createdAt,value
2022-09-03T00:02:47.422Z,9.89
2022-09-03T00:06:20.833Z,9.85
2022-09-03T00:09:28.819Z,9.86
2022-09-03T00:12:40.192Z,9.90
2022-09-03T00:15:42.529Z,9.87
2022-09-03T00:19:03.802Z,9.86
2022-09-03T00:22:32.374Z,9.82
2022-09-03T00:25:41.377Z,9.77
2022-09-03T00:28:52.238Z,9.68
2022-09-03T00:31:58.282Z,9.69
2022-09-03T00:35:06.507Z,9.72
2022-09-03T00:38:09.446Z,9.71
2022-09-03T00:41:11.387Z,9.68
2022-09-03T00:44:38.310Z,9.53
2022-09-03T00:48:17.809Z,9.53
2022-09-03T00:51:31.991Z,9.49
2022-09-03T00:54:58.809Z,9.48
2022-09-03T00:58:13.557Z,9.35
2022-09-03T01:01:40.776Z,9.35
2022-09-03T01:05:21.088Z,9.32
2022-09-03T01:08:42.222Z,9.24
2022-09-03T01:12:06.791Z,9.25
2022-09-03T01:15:17.650Z,9.20
2022-09-03T01:18:46.634Z,9.19
2022-09-03T01:22:21.065Z,9.17
2022-09-03T01:25:58.102Z,9.10
2022-09-03T01:29:23.277Z,9.07
2022-09-03T01:32:33.330Z,9.04
2022-09-03T01:35:51.012Z,8.98
2022-09-03T01:39:04.194Z,8.94
2022-09-03T01:42:30.184Z,8.88
2022-09-03T01:45:46.755Z,8.81
2022-09-03T01:49:06.647Z,8.76
2022-09-03T01:52:18.191Z,8.78
2022-09-03T01:55:57.928Z,8.77
2022-09-03T01:59:21.115Z,8.71
2022-09-03T02:02:25.992Z,8.69
2022-09-03T02:05:29.605Z,8.62
2022-09-03T02:08:32.063Z,8.62
2022-09-03T02:11:34.236Z,8.59
2022-09-03T02:14:36.412Z,8.55
2022-09-03T02:17:40.931Z,8.48
2022-09-03T02:20:43.421Z,8.38
2022-09-03T02:23:46.327Z,8.43
2022-09-03T02:26:48.462Z,8.36
2022-09-03T02:29:50.711Z,8.33
2022-09-03T02:32:52.793Z,8.32
2022-09-03T02:35:55.251Z,8.28
2022-09-03T02:38:57.792Z,8.27
2022-09-03T02:42:00.147Z,8.26
2022-09-03T02:45:13.054Z,8.21
2022-09-03T02:48:19.202Z,8.20
2022-09-03T02:51:21.497Z,8.03
2022-09-03T02:54:23.962Z,8.04
2022-09-03T02:57:27.891Z,7.99
2022-09-03T03:00:30.255Z,7.88
2022-09-03T03:03:32.304Z,7.91
2022-09-03T03:06:34.553Z,7.90
2022-09-03T03:09:36.634Z,7.64
2022-09-03T03:12:39.436Z,7.66
2022-09-03T03:15:42.064Z,7.66
2022-09-03T03:18:47.507Z,7.71
2022-09-03T03:21:49.544Z,7.73
2022-09-03T03:24:52.837Z,7.70
2022-09-03T03:27:57.057Z,7.71
2022-09-03T03:31:05.562Z,7.71
2022-09-03T03:34:07.704Z,7.65
2022-09-03T03:37:09.982Z,7.61
2022-09-03T03:40:12.961Z,7.51
2022-09-03T03:43:15.133Z,7.56
2022-09-03T03:46:17.522Z,7.54
2022-09-03T03:49:19.907Z,7.41
2022-09-03T03:52:21.986Z,7.32
2022-09-03T03:55:26.952Z,7.11
2022-09-03T03:58:31.197Z,7.02
2022-09-03T04:01:33.509Z,7.14
2022-09-03T04:04:35.613Z,7.26
2022-09-03T04:07:37.924Z,7.23
2022-09-03T04:10:39.992Z,7.23
2022-09-03T04:13:43.498Z,7.17
2022-09-03T04:16:46.950Z,7.15
2022-09-03T04:19:49.658Z,6.99
2022-09-03T04:22:52.113Z,7.05
2022-09-03T04:25:54.484Z,7.10
2022-09-03T04:28:56.792Z,7.15
2022-09-03T04:32:18.462Z,7.10
2022-09-03T04:35:21.150Z,7.08
2022-09-03T04:38:24.358Z,7.01
2022-09-03T04:41:28.815Z,6.98
2022-09-03T04:44:31.047Z,7.01
2022-09-03T04:47:33.176Z,7.06
2022-09-03T04:50:35.657Z,7.09
2022-09-03T04:53:42.206Z,7.17
2022-09-03T04:56:44.782Z,7.22
2022-09-03T04:59:47.365Z,7.27
2022-09-03T05:02:51.877Z,7.36
2022-09-03T05:05:55.472Z,7.48
2022-09-03T05:08:58.465Z,7.53
2022-09-03T05:12:00.694Z,7.64
2022-09-03T05:15:05.413Z,7.70
2022-09-03T05:18:07.346Z,7.72
2022-09-03T05:21:11.842Z,7.81
2022-09-03T05:24:15.293Z,7.90
2022-09-03T05:27:18.062Z,7.94
2022-09-03T05:30:22.787Z,7.95
2022-09-03T05:33:25.109Z,7.99
2022-09-03T05:36:32.856Z,8.13
2022-09-03T05:39:35.302Z,8.36
2022-09-03T05:42:38.887Z,8.60
2022-09-03T05:45:41.931Z,8.99
2022-09-03T05:48:44.669Z,9.47
2022-09-03T05:51:47.030Z,9.97
2022-09-03T05:54:49.469Z,10.57
2022-09-03T05:57:52.410Z,11.01
2022-09-03T06:00:54.631Z,11.47
2022-09-03T06:04:02.449Z,12.05
2022-09-03T06:07:04.541Z,12.66
2022-09-03T06:10:07.847Z,13.04
2022-09-03T06:13:10.669Z,13.46
2022-09-03T06:16:13.215Z,14.06
2022-09-03T06:19:15.899Z,14.39
2022-09-03T06:22:18.207Z,14.65
2022-09-03T06:25:20.399Z,14.83
2022-09-03T06:28:23.661Z,15.32
2022-09-03T06:31:28.837Z,15.85
2022-09-03T06:34:31.047Z,16.19
2022-09-03T06:37:33.271Z,16.62
2022-09-03T06:40:35.594Z,16.99
2022-09-03T06:43:40.758Z,17.23
2022-09-03T06:46:43.412Z,17.59
2022-09-03T06:49:45.547Z,17.80
2022-09-03T06:52:56.585Z,17.88
2022-09-03T06:56:01.850Z,17.88
2022-09-03T06:59:07.008Z,18.13
2022-09-03T07:02:09.248Z,18.60
2022-09-03T07:05:11.946Z,18.84
2022-09-03T07:08:30.411Z,19.00
2022-09-03T07:11:33.849Z,19.16
2022-09-03T07:14:35.961Z,19.30
2022-09-03T07:17:38.314Z,19.33
2022-09-03T07:20:40.310Z,19.69
2022-09-03T07:23:43.462Z,20.02
2022-09-03T07:26:47.238Z,20.31
2022-09-03T07:29:49.537Z,20.34
2022-09-03T07:32:51.766Z,20.56
2022-09-03T07:35:54.034Z,20.82
2022-09-03T07:38:57.617Z,21.09
2022-09-03T07:42:00.854Z,21.51
2022-09-03T07:45:05.495Z,21.66
2022-09-03T07:48:07.933Z,21.55
2022-09-03T07:51:10.201Z,21.62
2022-09-03T07:54:12.512Z,21.86
2022-09-03T07:57:14.704Z,21.70
2022-09-03T08:00:18.043Z,22.01
2022-09-03T08:03:20.144Z,22.45
2022-09-03T08:06:24.602Z,22.40
2022-09-03T08:09:26.839Z,22.44
2022-09-03T08:12:29.157Z,22.74
2022-09-03T08:15:32.081Z,22.78
2022-09-03T08:18:37.895Z,22.89
2022-09-03T08:21:42.953Z,23.18
2022-09-03T08:24:45.413Z,23.67
2022-09-03T08:27:47.420Z,23.53
2022-09-03T08:30:49.911Z,23.64
2022-09-03T08:33:54.552Z,23.77
2022-09-03T08:36:57.119Z,24.04
2022-09-03T08:40:00.472Z,24.09
2022-09-03T08:43:17.415Z,24.20
2022-09-03T08:46:20.757Z,24.56
2022-09-03T08:49:39.809Z,24.91
2022-09-03T08:52:49.928Z,24.80
2022-09-03T08:55:58.691Z,25.42
2022-09-03T08:59:01.624Z,25.42
2022-09-03T09:02:25.798Z,25.12
2022-09-03T09:05:51.929Z,25.55
2022-09-03T09:09:12.965Z,25.28
2022-09-03T09:12:34.069Z,25.57
2022-09-03T09:16:00.911Z,25.56
2022-09-03T09:19:11.972Z,25.73
2022-09-03T09:22:30.058Z,26.00
2022-09-03T09:25:32.900Z,25.97
2022-09-03T09:28:39.578Z,25.86
2022-09-03T09:31:45.094Z,26.28
2022-09-03T09:34:52.069Z,26.88
2022-09-03T09:37:57.481Z,26.62
2022-09-03T09:41:15.512Z,26.37
2022-09-03T09:44:20.238Z,26.09
2022-09-03T09:47:29.738Z,26.18
2022-09-03T09:50:31.748Z,26.70
2022-09-03T09:53:35.307Z,26.74
2022-09-03T09:56:37.386Z,27.05
2022-09-03T09:59:39.807Z,27.26
2022-09-03T10:02:54.535Z,27.08
2022-09-03T10:06:27.160Z,26.58
2022-09-03T10:09:31.855Z,26.84
2022-09-03T10:13:09.372Z,27.57
2022-09-03T10:16:22.548Z,27.59
2022-09-03T10:19:34.655Z,27.30
2022-09-03T10:22:56.098Z,26.60
2022-09-03T10:26:09.419Z,26.16
2022-09-03T10:29:12.396Z,26.95
2022-09-03T10:32:37.841Z,27.05
2022-09-03T10:36:04.846Z,26.67
2022-09-03T10:39:33.427Z,26.65
2022-09-03T10:42:55.280Z,27.41
2022-09-03T10:46:23.818Z,27.65
2022-09-03T10:49:54.232Z,27.62
2022-09-03T10:53:38.729Z,27.52
2022-09-03T10:56:51.064Z,27.49
2022-09-03T11:00:15.852Z,27.64
2022-09-03T11:03:25.955Z,27.63
2022-09-03T11:06:29.939Z,27.47
2022-09-03T11:09:40.074Z,27.64
2022-09-03T11:12:56.432Z,27.38
2022-09-03T11:16:26.964Z,27.45
2022-09-03T11:19:48.350Z,27.55
2022-09-03T11:22:53.405Z,27.59
2022-09-03T11:26:00.010Z,27.92
2022-09-03T11:29:13.006Z,27.29
2022-09-03T11:32:19.363Z,27.27
2022-09-03T11:35:28.459Z,27.40
2022-09-03T11:38:34.646Z,27.30
2022-09-03T11:41:37.551Z,27.43
2022-09-03T11:44:51.322Z,27.06
2022-09-03T11:47:54.289Z,26.16
2022-09-03T11:50:56.681Z,26.44
2022-09-03T11:54:05.812Z,26.71
2022-09-03T11:57:16.162Z,27.30
2022-09-03T12:00:22.571Z,27.47
2022-09-03T12:03:47.717Z,27.06
2022-09-03T12:07:07.267Z,27.10
2022-09-03T12:10:47.022Z,26.39
2022-09-03T12:14:07.001Z,26.26
2022-09-03T12:17:35.490Z,26.52
2022-09-03T12:20:37.882Z,26.81
2022-09-03T12:23:46.398Z,27.26
2022-09-03T12:26:48.458Z,27.44
2022-09-03T12:29:59.838Z,26.96
2022-09-03T12:33:11.987Z,27.26
2022-09-03T12:36:14.729Z,27.07
2022-09-03T12:42:50.765Z,27.02
2022-09-03T12:46:10.484Z,27.23
2022-09-03T12:49:30.993Z,27.27
2022-09-03T12:52:43.181Z,27.20
2022-09-03T12:55:53.980Z,27.20
2022-09-03T12:58:59.582Z,26.83
2022-09-03T13:02:09.856Z,26.33
2022-09-03T13:05:17.144Z,26.35
2022-09-03T13:08:26.748Z,26.18
2022-09-03T13:11:33.204Z,25.60
2022-09-03T13:14:48.268Z,25.36
2022-09-03T13:18:19.488Z,25.69
2022-09-03T13:21:27.900Z,25.53
2022-09-03T13:24:48.482Z,25.46
2022-09-03T13:27:56.445Z,25.44
2022-09-03T13:31:26.181Z,25.74
2022-09-03T13:34:35.507Z,25.82
2022-09-03T13:37:48.331Z,26.03
2022-09-03T13:41:10.798Z,25.83
2022-09-03T13:44:24.843Z,25.52
2022-09-03T13:48:09.032Z,25.67
2022-09-03T13:51:16.775Z,25.41
2022-09-03T13:54:48.557Z,25.68
2022-09-03T13:58:02.303Z,25.14
2022-09-03T14:01:13.471Z,25.15
2022-09-03T14:04:23.115Z,25.21
2022-09-03T14:07:39.222Z,25.43
2022-09-03T14:11:20.217Z,25.68
2022-09-03T14:15:00.123Z,25.41
2022-09-03T14:18:39.823Z,25.45
2022-09-03T14:21:47.467Z,24.94
2022-09-03T14:24:55.098Z,24.64
2022-09-03T14:28:34.020Z,24.75
2022-09-03T14:31:58.070Z,25.10
2022-09-03T14:35:28.895Z,25.15
2022-09-03T14:38:58.366Z,24.90
2022-09-03T14:42:06.481Z,24.94
2022-09-03T14:46:03.579Z,24.86
2022-09-03T14:49:14.215Z,24.64
2022-09-03T14:52:28.805Z,24.80
2022-09-03T14:56:07.134Z,24.75
2022-09-03T14:59:40.202Z,24.85
2022-09-03T15:03:01.283Z,24.57
2022-09-03T15:06:33.913Z,24.66
2022-09-03T15:09:46.263Z,24.78
2022-09-03T15:12:59.853Z,24.79
2022-09-03T15:16:02.312Z,24.82
2022-09-03T15:19:14.364Z,24.69
2022-09-03T15:22:28.440Z,24.85
2022-09-03T15:25:52.323Z,24.73
2022-09-03T15:29:16.548Z,24.67
2022-09-03T15:32:47.245Z,24.42
2022-09-03T15:36:04.288Z,24.30
2022-09-03T15:39:06.379Z,24.56
2022-09-03T15:42:31.816Z,24.51
2022-09-03T15:45:40.777Z,24.42
2022-09-03T15:49:03.420Z,24.24
2022-09-03T15:52:11.350Z,24.29
2022-09-03T15:55:15.003Z,24.28
2022-09-03T15:58:37.647Z,24.26
2022-09-03T16:01:58.097Z,24.04
2022-09-03T16:05:08.171Z,23.87
2022-09-03T16:08:32.548Z,23.94
2022-09-03T16:11:49.818Z,23.91
2022-09-03T16:15:02.677Z,23.87
2022-09-03T16:18:35.811Z,23.74
2022-09-03T16:22:25.772Z,23.53
2022-09-03T16:25:33.113Z,23.53
2022-09-03T16:32:22.900Z,22.98
2022-09-03T16:35:55.902Z,22.83
2022-09-03T16:39:16.727Z,22.87
2022-09-03T16:42:41.193Z,22.72
2022-09-03T16:45:51.950Z,22.34
2022-09-03T16:49:23.258Z,22.13
2022-09-03T16:52:43.762Z,21.88
2022-09-03T16:56:04.437Z,21.81
2022-09-03T16:59:44.095Z,21.70
2022-09-03T17:03:01.137Z,21.54
2022-09-03T17:06:22.002Z,21.45
2022-09-03T17:09:39.049Z,21.37
2022-09-03T17:13:02.335Z,21.24
2022-09-03T17:16:23.652Z,21.10
2022-09-03T17:19:38.809Z,20.93
2022-09-03T17:23:18.666Z,20.79
2022-09-03T17:26:47.827Z,20.59
2022-09-03T17:30:05.344Z,20.44
2022-09-03T17:33:35.641Z,20.25
2022-09-03T17:36:38.890Z,20.03
2022-09-03T17:39:50.018Z,19.86
2022-09-03T17:43:17.189Z,19.71
2022-09-03T17:46:42.008Z,19.50
2022-09-03T17:49:54.373Z,19.36
2022-09-03T17:53:26.878Z,19.19
2022-09-03T17:56:55.556Z,19.03
2022-09-03T18:00:08.004Z,18.81
2022-09-03T18:03:27.601Z,18.56
2022-09-03T18:06:52.940Z,18.34
2022-09-03T18:10:32.896Z,17.99
2022-09-03T18:13:47.636Z,17.71
2022-09-03T18:17:00.166Z,17.43
2022-09-03T18:20:30.353Z,17.20
2022-09-03T18:23:57.973Z,16.97
2022-09-03T18:27:22.648Z,16.85
2022-09-03T18:30:44.739Z,16.71
2022-09-03T18:34:08.019Z,16.56
2022-09-03T18:37:29.418Z,16.45
2022-09-03T18:41:15.291Z,16.32
2022-09-03T18:45:06.638Z,16.22
2022-09-03T18:49:14.024Z,16.04
2022-09-03T18:53:00.994Z,15.87
2022-09-03T18:56:35.074Z,15.69
2022-09-03T19:00:10.032Z,15.50
2022-09-03T19:03:39.755Z,15.28
2022-09-03T19:07:21.433Z,15.20
2022-09-03T19:10:48.355Z,15.10
2022-09-03T19:14:10.074Z,14.95
2022-09-03T19:18:00.559Z,14.81
2022-09-03T19:21:43.225Z,14.64
2022-09-03T19:25:03.791Z,14.51
2022-09-03T19:28:49.953Z,14.44
2022-09-03T19:32:23.565Z,14.40
2022-09-03T19:35:55.776Z,14.30
2022-09-03T19:39:22.473Z,14.19
2022-09-03T19:43:00.689Z,14.00
2022-09-03T19:46:41.601Z,13.90
2022-09-03T19:50:21.301Z,13.84
2022-09-03T19:53:42.676Z,13.73
2022-09-03T19:57:04.885Z,13.67
2022-09-03T20:00:32.518Z,13.45
2022-09-03T20:03:54.838Z,13.43
2022-09-03T20:07:17.425Z,13.41
2022-09-03T20:10:23.976Z,13.36
2022-09-03T20:13:26.550Z,13.31
2022-09-03T20:16:34.663Z,13.21
2022-09-03T20:19:42.813Z,13.17
2022-09-03T20:22:51.661Z,13.11
2022-09-03T20:26:02.256Z,13.06
2022-09-03T20:29:23.500Z,12.97
2022-09-03T20:32:25.654Z,12.89
2022-09-03T20:35:36.937Z,12.87
2022-09-03T20:38:38.930Z,12.86
2022-09-03T20:42:02.920Z,12.87
2022-09-03T20:45:16.706Z,12.86
2022-09-03T20:49:05.228Z,12.80
2022-09-03T20:52:21.088Z,12.75
2022-09-03T20:55:29.948Z,12.74
2022-09-03T20:58:37.934Z,12.77
2022-09-03T21:02:03.675Z,12.75
2022-09-03T21:05:12.579Z,12.68
2022-09-03T21:08:44.039Z,12.62
2022-09-03T21:12:03.774Z,12.55
2022-09-03T21:15:18.479Z,12.52
2022-09-03T21:18:38.934Z,12.52
2022-09-03T21:22:03.151Z,12.49
2022-09-03T21:25:09.562Z,12.47
2022-09-03T21:28:22.528Z,12.44
2022-09-03T21:31:31.923Z,12.45
2022-09-03T21:34:45.326Z,12.41
2022-09-03T21:37:58.344Z,12.41
2022-09-03T21:41:17.502Z,12.36
2022-09-03T21:44:39.437Z,12.32
2022-09-03T21:47:45.304Z,12.29
2022-09-03T21:50:53.194Z,12.18
2022-09-03T21:54:17.071Z,12.23
2022-09-03T21:57:22.215Z,12.22
2022-09-03T22:00:32.787Z,12.21
2022-09-03T22:03:35.212Z,12.25
2022-09-03T22:06:49.259Z,12.33
2022-09-03T22:10:16.754Z,12.30
2022-09-03T22:13:32.177Z,12.19
2022-09-03T22:16:43.188Z,12.19
2022-09-03T22:19:46.002Z,12.16
2022-09-03T22:23:11.876Z,12.15
2022-09-03T22:26:26.934Z,12.13
2022-09-03T22:29:46.754Z,12.07
2022-09-03T22:32:54.392Z,12.02
2022-09-03T22:36:25.484Z,12.04
2022-09-03T22:39:36.611Z,12.00
2022-09-03T22:43:05.147Z,11.96
2022-09-03T22:46:12.040Z,11.89
2022-09-03T22:49:53.091Z,11.84
2022-09-03T22:53:26.456Z,11.84
2022-09-03T22:56:32.222Z,11.80
2022-09-03T22:59:41.802Z,11.78
2022-09-03T23:02:46.484Z,11.77
2022-09-03T23:06:02.477Z,11.78
2022-09-03T23:09:10.267Z,11.71
2022-09-03T23:12:21.944Z,11.70
2022-09-03T23:15:29.985Z,11.65
2022-09-03T23:18:34.021Z,11.66
2022-09-03T23:21:41.005Z,11.61
2022-09-03T23:24:50.390Z,11.55
2022-09-03T23:27:55.154Z,11.53
2022-09-03T23:31:12.068Z,11.46
2022-09-03T23:34:14.142Z,11.42
2022-09-03T23:37:55.199Z,11.43
2022-09-03T23:41:01.189Z,11.35
2022-09-03T23:44:33.225Z,11.30
2022-09-03T23:47:44.972Z,11.23
2022-09-03T23:50:58.367Z,11.20
2022-09-03T23:54:38.126Z,11.11
2022-09-03T23:57:41.745Z,11.01
